createdAt,value
2017-08-01T16:01:33.693Z,56
2017-08-01T16:04:53.309Z,56
2017-08-01T16:07:52.431Z,55
2017-08-01T16:09:24.315Z,54
2017-08-01T16:10:45.446Z,55
2017-08-01T16:12:10.492Z,52
2017-08-01T16:13:48.099Z,52
2017-08-01T16:15:22.383Z,54
2017-08-01T16:16:51.680Z,54
2017-08-01T16:18:24.729Z,55
2017-08-01T16:19:59.775Z,55
2017-08-01T16:21:20.050Z,54
2017-08-01T16:22:44.557Z,54
2017-08-01T16:24:14.682Z,55
2017-08-01T16:25:38.387Z,55
2017-08-01T16:27:07.984Z,54
2017-08-01T16:28:32.017Z,54
2017-08-01T16:29:57.869Z,55
2017-08-01T16:31:22.137Z,55
2017-08-01T16:32:49.822Z,54
2017-08-01T16:34:12.589Z,54
2017-08-01T16:35:41.157Z,54
2017-08-01T16:45:31.289Z,50
2017-08-01T16:46:59.665Z,54
2017-08-01T16:48:24.230Z,53
2017-08-01T16:49:48.577Z,53
2017-08-01T16:51:11.819Z,49
2017-08-01T16:52:34.168Z,54
2017-08-01T16:53:56.044Z,53
2017-08-01T16:55:19.675Z,54
2017-08-01T16:56:42.496Z,54
2017-08-01T16:58:04.275Z,54
2017-08-01T16:59:32.433Z,50
2017-08-01T17:01:04.111Z,50
2017-08-01T17:02:27.334Z,51
2017-08-01T17:03:57.272Z,52
2017-08-01T17:05:20.020Z,53
2017-08-01T17:06:40.543Z,52
2017-08-01T17:08:05.681Z,50
2017-08-01T17:09:30.771Z,53
2017-08-01T17:11:02.955Z,50
2017-08-01T17:12:30.580Z,53
2017-08-01T17:13:57.310Z,53
2017-08-01T17:15:18.891Z,53
2017-08-01T17:16:39.058Z,53
2017-08-01T17:17:59.214Z,53
2017-08-01T17:19:27.975Z,49
2017-08-01T17:20:54.316Z,50
2017-08-01T17:22:21.830Z,52
2017-08-01T17:23:45.249Z,53
2017-08-01T17:26:39.575Z,50
2017-08-01T17:28:02.417Z,50
2017-08-01T17:29:32.029Z,53
2017-08-01T17:30:52.393Z,53
2017-08-01T17:32:17.022Z,52
2017-08-01T17:33:38.165Z,50
2017-08-01T17:35:00.535Z,52
2017-08-01T17:36:30.380Z,50
2017-08-01T17:37:55.480Z,52
2017-08-01T17:39:18.143Z,52
2017-08-01T17:40:49.743Z,52
2017-08-01T17:41:32.328Z,52
2017-08-01T17:43:00.990Z,52
2017-08-01T17:44:25.492Z,50
2017-08-01T17:45:50.441Z,49
2017-08-01T17:47:13.210Z,52
2017-08-01T17:48:35.198Z,52
2017-08-01T17:49:57.719Z,52
2017-08-01T17:51:18.426Z,52
2017-08-01T17:52:51.196Z,52
2017-08-01T17:54:11.548Z,52
2017-08-01T17:55:37.195Z,52
2017-08-01T17:57:01.878Z,50
2017-08-01T17:58:37.254Z,52
2017-08-01T18:00:01.867Z,52
2017-08-01T18:01:28.485Z,52
2017-08-01T18:02:51.753Z,52
2017-08-01T18:04:23.233Z,52
2017-08-01T18:05:43.692Z,51
2017-08-01T18:07:12.673Z,51
2017-08-01T18:08:47.557Z,50
2017-08-01T18:10:14.077Z,52
2017-08-01T18:53:28.489Z,51
2017-08-01T18:55:02.330Z,51
2017-08-01T18:56:30.049Z,51
2017-08-01T18:57:57.058Z,51
2017-08-01T18:59:20.782Z,48
2017-08-01T19:00:42.297Z,50
2017-08-01T19:02:06.057Z,50
2017-08-01T19:03:37.058Z,49
2017-08-01T19:05:05.451Z,50
2017-08-01T19:06:27.572Z,51
2017-08-01T19:08:05.204Z,48
2017-08-01T19:09:32.817Z,50
2017-08-01T19:11:06.054Z,50
2017-08-01T19:12:27.937Z,50
2017-08-01T19:13:51.283Z,50
2017-08-01T19:15:21.831Z,50
2017-08-01T19:16:49.674Z,50
2017-08-01T19:18:23.760Z,50
2017-08-01T19:19:54.761Z,49
2017-08-01T19:21:26.161Z,48
2017-08-01T19:22:55.639Z,50
2017-08-01T19:24:23.307Z,50
2017-08-01T19:25:46.075Z,50
2017-08-01T19:27:12.054Z,49
2017-08-01T19:28:33.006Z,50
2017-08-01T19:29:53.534Z,50
2017-08-01T19:31:18.261Z,50
2017-08-01T19:32:40.439Z,50
2017-08-01T19:34:03.860Z,50
2017-08-01T19:35:26.435Z,50
2017-08-01T19:37:01.421Z,50
2017-08-01T19:38:24.521Z,50
2017-08-01T19:39:47.669Z,50
2017-08-01T19:41:12.320Z,50
2017-08-01T19:42:35.041Z,48
2017-08-01T19:44:01.178Z,50
2017-08-01T19:45:27.246Z,50
2017-08-01T19:46:54.701Z,50
2017-08-01T19:48:25.941Z,50
2017-08-01T19:49:50.513Z,49
2017-08-01T19:51:11.079Z,47
2017-08-01T19:52:38.153Z,48
2017-08-01T19:53:58.876Z,50
2017-08-01T19:55:22.069Z,48
2017-08-01T19:56:46.737Z,48
2017-08-01T19:58:14.053Z,46
2017-08-01T19:59:40.508Z,46
2017-08-01T20:01:02.606Z,46
2017-08-01T20:02:31.679Z,50
2017-08-01T20:03:55.262Z,49
2017-08-01T20:05:17.026Z,50
2017-08-01T20:06:38.235Z,50
2017-08-01T20:08:02.471Z,50
2017-08-01T20:09:23.866Z,50
2017-08-01T20:10:49.635Z,49
2017-08-01T20:12:20.017Z,49
2017-08-01T20:13:42.878Z,46
2017-08-01T20:15:08.418Z,49
2017-08-01T20:16:35.991Z,49
2017-08-01T20:18:11.019Z,49
2017-08-01T20:19:34.542Z,47
2017-08-01T20:20:57.819Z,49
2017-08-01T20:22:23.607Z,49
2017-08-01T20:23:52.841Z,49
2017-08-01T20:25:19.590Z,46
2017-08-01T20:26:40.688Z,46
2017-08-01T20:28:03.859Z,49
2017-08-01T20:29:25.179Z,48
2017-08-01T20:30:46.997Z,46
2017-08-01T20:32:12.237Z,49
2017-08-01T20:33:41.158Z,46
2017-08-01T20:35:01.400Z,49
2017-08-01T20:36:25.730Z,48
